createdAt,value
2018-07-17T00:00:04.753Z,13.39
2018-07-17T00:01:04.737Z,13.42
2018-07-17T00:02:04.781Z,13.32
2018-07-17T00:03:04.714Z,13.32
2018-07-17T00:04:04.725Z,13.23
2018-07-17T00:05:04.694Z,13.28
2018-07-17T00:06:04.682Z,13.29
2018-07-17T00:07:04.661Z,13.25
2018-07-17T00:08:04.684Z,13.25
2018-07-17T00:09:04.638Z,13.36
2018-07-17T00:10:04.658Z,13.29
2018-07-17T00:11:05.293Z,13.33
2018-07-17T00:12:04.607Z,13.30
2018-07-17T00:13:04.602Z,13.23
2018-07-17T00:14:04.598Z,13.25
2018-07-17T00:15:04.573Z,13.25
2018-07-17T00:16:04.579Z,13.22
2018-07-17T00:17:04.555Z,13.08
2018-07-17T00:18:04.543Z,13.20
2018-07-17T00:19:05.288Z,13.17
2018-07-17T00:20:04.533Z,13.19
2018-07-17T00:21:04.513Z,13.17
2018-07-17T00:22:04.496Z,13.19
2018-07-17T00:23:04.483Z,13.22
2018-07-17T00:24:04.470Z,13.17
2018-07-17T00:25:04.460Z,13.14
2018-07-17T00:26:04.475Z,13.08
2018-07-17T00:27:05.289Z,13.19
2018-07-17T00:28:04.427Z,13.10
2018-07-17T00:29:04.414Z,13.17
2018-07-17T00:30:04.403Z,13.11
2018-07-17T00:31:04.421Z,13.17
2018-07-17T00:32:04.396Z,13.12
2018-07-17T00:33:04.366Z,13.14
2018-07-17T00:34:04.367Z,13.08
2018-07-17T00:35:04.348Z,13.07
2018-07-17T00:36:04.336Z,13.05
2018-07-17T00:37:04.350Z,13.08
2018-07-17T00:38:04.330Z,13.05
2018-07-17T00:39:04.295Z,13.00
2018-07-17T00:40:04.286Z,12.93
2018-07-17T00:41:04.318Z,12.90
2018-07-17T00:42:04.266Z,12.93
2018-07-17T00:43:04.271Z,12.93
2018-07-17T00:44:04.258Z,12.95
2018-07-17T00:45:04.234Z,12.95
2018-07-17T00:46:04.224Z,12.85
2018-07-17T00:47:04.216Z,12.89
2018-07-17T00:48:04.233Z,12.86
2018-07-17T00:49:04.186Z,12.93
2018-07-17T00:50:04.192Z,12.79
2018-07-17T00:51:04.166Z,12.85
2018-07-17T00:52:04.153Z,12.83
2018-07-17T00:53:04.138Z,12.89
2018-07-17T00:54:04.139Z,12.86
2018-07-17T00:55:04.112Z,12.87
2018-07-17T00:56:04.127Z,12.85
2018-07-17T00:57:04.092Z,12.77
2018-07-17T00:58:04.088Z,12.82
2018-07-17T00:59:04.365Z,12.68
2018-07-17T01:00:04.064Z,12.83
2018-07-17T01:01:04.818Z,12.75
2018-07-17T01:02:04.086Z,12.78
2018-07-17T01:03:04.028Z,12.70
2018-07-17T01:04:04.020Z,12.74
2018-07-17T01:05:04.021Z,12.77
2018-07-17T01:06:03.996Z,12.77
2018-07-17T01:07:04.015Z,12.75
2018-07-17T01:08:03.975Z,12.82
2018-07-17T01:09:03.980Z,12.85
2018-07-17T01:10:03.962Z,12.70
2018-07-17T01:11:03.935Z,12.72
2018-07-17T01:12:03.924Z,12.65
2018-07-17T01:13:04.753Z,12.75
2018-07-17T01:14:03.919Z,12.74
2018-07-17T01:15:03.914Z,12.68
2018-07-17T01:16:03.884Z,12.72
2018-07-17T01:17:03.870Z,12.78
2018-07-17T01:18:03.859Z,12.72
2018-07-17T01:19:03.849Z,12.72
2018-07-17T01:20:03.844Z,12.70
2018-07-17T01:21:03.848Z,12.62
2018-07-17T01:22:03.816Z,12.56
2018-07-17T01:23:03.800Z,12.67
2018-07-17T01:24:03.784Z,12.65
2018-07-17T01:25:03.775Z,12.64
2018-07-17T01:26:03.804Z,12.62
2018-07-17T01:27:03.758Z,12.62
2018-07-17T01:28:03.750Z,12.56
2018-07-17T01:29:03.735Z,12.59
2018-07-17T01:30:03.715Z,12.56
2018-07-17T01:31:03.707Z,12.57
2018-07-17T01:32:03.714Z,12.56
2018-07-17T01:33:03.684Z,12.65
2018-07-17T01:34:03.678Z,12.59
2018-07-17T01:35:03.663Z,12.57
2018-07-17T01:36:03.657Z,12.57
2018-07-17T01:37:03.667Z,12.54
2018-07-17T01:38:03.663Z,12.52
2018-07-17T01:39:03.611Z,12.50
2018-07-17T01:40:03.611Z,12.53
2018-07-17T01:41:03.601Z,12.39
2018-07-17T01:42:04.759Z,12.42
2018-07-17T01:43:03.631Z,12.42
2018-07-17T01:44:03.555Z,12.53
2018-07-17T01:45:03.547Z,12.45
2018-07-17T01:46:03.540Z,12.41
2018-07-17T01:47:03.527Z,12.41
2018-07-17T01:48:03.534Z,12.50
2018-07-17T01:49:03.524Z,12.54
2018-07-17T01:50:03.489Z,12.50
2018-07-17T01:51:03.482Z,12.50
2018-07-17T01:52:03.471Z,12.54
2018-07-17T01:53:03.460Z,12.50
2018-07-17T01:54:03.456Z,12.52
2018-07-17T01:55:03.456Z,12.53
2018-07-17T01:56:03.420Z,12.52
2018-07-17T01:57:03.413Z,12.54
2018-07-17T01:58:03.403Z,12.54
2018-07-17T01:59:03.411Z,12.42
2018-07-17T02:00:03.381Z,12.49
2018-07-17T02:01:03.391Z,12.41
2018-07-17T02:02:03.359Z,12.46
2018-07-17T02:03:03.348Z,12.46
2018-07-17T02:04:03.331Z,12.35
2018-07-17T02:05:03.330Z,12.29
2018-07-17T02:06:03.311Z,12.34
2018-07-17T02:07:03.319Z,12.32
2018-07-17T02:08:03.284Z,12.34
2018-07-17T02:09:03.275Z,12.34
2018-07-17T02:10:03.284Z,12.24
2018-07-17T02:11:03.251Z,12.23
2018-07-17T02:12:03.237Z,12.20
2018-07-17T02:13:03.238Z,12.21
2018-07-17T02:14:03.217Z,12.20
2018-07-17T02:15:03.206Z,12.19
2018-07-17T02:16:03.227Z,12.12
2018-07-17T02:17:03.185Z,12.13
2018-07-17T02:18:03.168Z,12.10
2018-07-17T02:19:03.177Z,12.09
2018-07-17T02:20:03.151Z,12.09
2018-07-17T02:21:03.136Z,12.07
2018-07-17T02:22:03.143Z,12.09
2018-07-17T02:23:03.115Z,12.14
2018-07-17T02:24:03.179Z,12.16
2018-07-17T02:25:03.093Z,12.07
2018-07-17T02:26:03.158Z,12.16
2018-07-17T02:27:03.082Z,12.16
2018-07-17T02:28:03.064Z,12.01
2018-07-17T02:29:03.056Z,12.05
2018-07-17T02:30:03.059Z,12.07
2018-07-17T02:31:03.025Z,12.01
2018-07-17T02:32:03.047Z,11.95
2018-07-17T02:33:02.997Z,12.07
2018-07-17T02:34:02.991Z,12.01
2018-07-17T02:35:02.980Z,11.99
2018-07-17T02:36:02.996Z,11.91
2018-07-17T02:37:02.958Z,11.95
2018-07-17T02:38:02.958Z,11.96
2018-07-17T02:39:02.936Z,11.99
2018-07-17T02:40:02.922Z,11.98
2018-07-17T02:41:02.909Z,11.99
2018-07-17T02:42:02.924Z,12.07
2018-07-17T02:43:02.925Z,12.05
2018-07-17T02:44:02.880Z,12.10
2018-07-17T02:45:02.863Z,11.91
2018-07-17T02:46:02.856Z,11.94
2018-07-17T02:47:02.844Z,12.01
2018-07-17T02:48:02.853Z,11.91
2018-07-17T02:49:02.838Z,11.99
2018-07-17T02:50:02.813Z,11.88
2018-07-17T02:51:02.807Z,11.90
2018-07-17T02:52:02.782Z,11.96
2018-07-17T02:53:02.773Z,11.85
2018-07-17T02:54:02.802Z,11.85
2018-07-17T02:55:02.747Z,11.86
2018-07-17T02:56:02.740Z,11.82
2018-07-17T02:57:02.729Z,11.86
2018-07-17T02:58:02.726Z,11.94
2018-07-17T02:59:02.700Z,11.85
2018-07-17T03:00:02.732Z,11.86
2018-07-17T03:01:02.685Z,11.88
2018-07-17T03:02:02.678Z,11.83
2018-07-17T03:03:02.660Z,11.85
2018-07-17T03:04:02.654Z,11.82
2018-07-17T03:05:02.664Z,11.82
2018-07-17T03:06:02.650Z,11.82
2018-07-17T03:07:02.684Z,11.85
2018-07-17T03:08:02.613Z,11.88
2018-07-17T03:09:02.595Z,11.86
2018-07-17T03:10:02.586Z,11.73
2018-07-17T03:11:02.589Z,11.78
2018-07-17T03:12:02.578Z,11.83
2018-07-17T03:13:02.547Z,11.78
2018-07-17T03:14:02.536Z,11.73
2018-07-17T03:15:02.526Z,11.70
2018-07-17T03:16:02.539Z,11.85
2018-07-17T03:17:02.501Z,11.85
2018-07-17T03:18:02.506Z,11.79
2018-07-17T03:19:02.482Z,11.79
2018-07-17T03:20:02.469Z,11.86
2018-07-17T03:21:02.463Z,11.88
2018-07-17T03:22:02.456Z,11.73
2018-07-17T03:23:02.438Z,11.83
2018-07-17T03:24:02.440Z,11.76
2018-07-17T03:25:02.408Z,11.82
2018-07-17T03:26:02.400Z,11.75
2018-07-17T03:27:02.404Z,11.80
2018-07-17T03:28:02.370Z,11.79
2018-07-17T03:29:02.362Z,11.79
2018-07-17T03:30:02.370Z,11.78
2018-07-17T03:31:02.343Z,11.79
2018-07-17T03:32:02.329Z,11.75
2018-07-17T03:33:02.330Z,11.82
2018-07-17T03:34:02.305Z,11.76
2018-07-17T03:35:02.298Z,11.80
2018-07-17T03:36:02.303Z,11.83
2018-07-17T03:37:02.271Z,11.73
2018-07-17T03:38:02.285Z,11.76
2018-07-17T03:39:02.251Z,11.78
2018-07-17T03:40:02.240Z,11.73
2018-07-17T03:41:02.237Z,11.75
2018-07-17T03:42:02.226Z,11.78
2018-07-17T03:43:02.208Z,11.80
2018-07-17T03:44:02.208Z,11.65
2018-07-17T03:45:02.181Z,11.79
2018-07-17T03:46:02.821Z,11.75
2018-07-17T03:47:02.164Z,11.82
2018-07-17T03:48:02.160Z,11.86
2018-07-17T03:49:02.177Z,11.76
2018-07-17T03:50:02.126Z,11.86
2018-07-17T03:51:02.113Z,11.88
2018-07-17T03:52:02.101Z,11.85
2018-07-17T03:53:02.093Z,11.72
2018-07-17T03:54:02.092Z,11.73
2018-07-17T03:55:02.094Z,11.85
2018-07-17T03:56:02.054Z,11.86
2018-07-17T03:57:02.050Z,11.83
2018-07-17T03:58:02.034Z,11.86
2018-07-17T03:59:02.026Z,11.83
2018-07-17T04:00:02.024Z,11.80
2018-07-17T04:01:02.013Z,11.88
2018-07-17T04:02:01.987Z,11.86
2018-07-17T04:03:01.978Z,11.88
2018-07-17T04:04:01.968Z,11.91
2018-07-17T04:05:01.956Z,11.90
2018-07-17T04:06:01.988Z,11.99
2018-07-17T04:07:01.935Z,11.91
2018-07-17T04:08:01.917Z,11.99
2018-07-17T04:09:01.916Z,11.95
2018-07-17T04:10:01.916Z,11.96
2018-07-17T04:11:01.896Z,12.05
2018-07-17T04:12:01.913Z,12.05
2018-07-17T04:13:01.866Z,12.12
2018-07-17T04:14:01.854Z,12.12
2018-07-17T04:15:01.844Z,12.19
2018-07-17T04:16:01.866Z,12.16
2018-07-17T04:17:01.820Z,12.12
2018-07-17T04:18:01.830Z,12.21
2018-07-17T04:19:01.794Z,12.13
2018-07-17T04:20:01.793Z,12.24
2018-07-17T04:21:01.778Z,12.31
2018-07-17T04:22:01.794Z,12.32
2018-07-17T04:23:01.756Z,12.28
2018-07-17T04:24:01.757Z,12.37
2018-07-17T04:25:01.724Z,12.46
2018-07-17T04:26:01.718Z,12.56
2018-07-17T04:27:01.708Z,12.42
2018-07-17T04:28:01.712Z,12.47
2018-07-17T04:29:01.681Z,12.56
2018-07-17T04:30:01.690Z,12.62
2018-07-17T04:31:23.417Z,12.68
2018-07-17T04:32:01.763Z,12.78
2018-07-17T04:33:02.034Z,12.78
2018-07-17T04:34:01.685Z,12.87
2018-07-17T04:35:01.639Z,12.89
2018-07-17T04:36:01.678Z,12.86
2018-07-17T04:37:01.613Z,12.89
2018-07-17T04:38:01.652Z,13.03
2018-07-17T04:39:01.868Z,12.96
2018-07-17T04:40:02.313Z,13.00
2018-07-17T04:41:01.747Z,13.19
2018-07-17T04:42:01.662Z,13.20
2018-07-17T04:43:01.778Z,13.15
2018-07-17T04:44:01.784Z,13.29
2018-07-17T04:45:01.773Z,13.33
2018-07-17T04:46:02.426Z,13.41
2018-07-17T04:47:01.569Z,13.42
2018-07-17T04:48:01.848Z,13.54
2018-07-17T04:49:01.489Z,13.70
2018-07-17T04:50:01.711Z,13.78
2018-07-17T04:51:01.572Z,13.92
2018-07-17T04:52:01.561Z,13.82
2018-07-17T04:53:01.520Z,13.91
2018-07-17T04:54:01.503Z,14.04
2018-07-17T04:55:01.633Z,14.12
2018-07-17T04:56:01.491Z,14.21
2018-07-17T04:57:01.518Z,14.18
2018-07-17T04:58:01.461Z,14.33
2018-07-17T04:59:02.349Z,14.43
2018-07-17T05:00:01.442Z,14.50
2018-07-17T05:01:01.576Z,14.60
2018-07-17T05:02:01.519Z,14.68
2018-07-17T05:03:01.400Z,14.80
2018-07-17T05:04:01.415Z,14.92
2018-07-17T05:05:01.391Z,14.98
2018-07-17T05:06:01.485Z,15.06
2018-07-17T05:07:01.366Z,15.16
2018-07-17T05:08:01.360Z,15.20
2018-07-17T05:09:01.244Z,15.23
2018-07-17T05:10:01.215Z,15.39
2018-07-17T05:11:01.208Z,15.47
2018-07-17T05:12:01.218Z,15.50
2018-07-17T05:13:01.273Z,15.60
2018-07-17T05:14:01.168Z,15.62
2018-07-17T05:15:01.295Z,15.62
2018-07-17T05:16:01.159Z,15.84
2018-07-17T05:17:01.166Z,15.75
2018-07-17T05:18:01.129Z,15.89
2018-07-17T05:19:01.113Z,15.90
2018-07-17T05:20:01.113Z,16.07
2018-07-17T05:21:01.117Z,16.08
2018-07-17T05:22:01.119Z,16.07
2018-07-17T05:23:01.139Z,16.17
2018-07-17T05:24:01.121Z,16.27
2018-07-17T05:25:01.183Z,16.35
2018-07-17T05:26:01.323Z,16.30
2018-07-17T05:27:01.029Z,16.31
2018-07-17T05:28:01.281Z,16.35
2018-07-17T05:29:01.040Z,16.42
2018-07-17T05:30:01.040Z,16.49
2018-07-17T05:31:00.977Z,16.52
2018-07-17T05:32:01.034Z,16.61
2018-07-17T05:33:01.014Z,16.71
2018-07-17T05:34:01.455Z,16.75
2018-07-17T05:35:01.014Z,16.82
2018-07-17T05:36:00.957Z,16.85
2018-07-17T05:37:00.981Z,16.89
2018-07-17T05:38:00.950Z,16.96
2018-07-17T05:39:00.917Z,17.00
2018-07-17T05:40:01.160Z,17.11
2018-07-17T05:41:00.982Z,17.21
2018-07-17T05:42:00.875Z,17.30
2018-07-17T05:43:00.838Z,17.28
2018-07-17T05:44:00.835Z,17.34
2018-07-17T05:45:00.967Z,17.43
2018-07-17T05:46:00.850Z,17.43
2018-07-17T05:47:00.845Z,17.43
2018-07-17T05:48:00.844Z,17.54
2018-07-17T05:49:00.803Z,17.70
2018-07-17T05:50:01.029Z,17.64
2018-07-17T05:51:00.767Z,17.78
2018-07-17T05:52:00.752Z,17.84
2018-07-17T05:53:00.726Z,17.89
2018-07-17T05:54:00.728Z,17.84
2018-07-17T05:55:00.713Z,18.00
2018-07-17T05:56:00.740Z,18.03
2018-07-17T05:57:00.707Z,18.10
2018-07-17T05:58:00.712Z,18.26
2018-07-17T05:59:00.660Z,18.15
2018-07-17T06:00:00.652Z,18.12
2018-07-17T06:01:00.643Z,18.18
2018-07-17T06:02:00.632Z,18.20
2018-07-17T06:03:01.276Z,18.29
2018-07-17T06:04:00.603Z,18.29
2018-07-17T06:05:00.585Z,18.27
2018-07-17T06:06:00.582Z,18.35
2018-07-17T06:07:00.588Z,18.36
2018-07-17T06:08:00.565Z,18.35
2018-07-17T06:09:00.548Z,18.45
2018-07-17T06:10:00.540Z,18.50
2018-07-17T06:11:00.518Z,18.52
2018-07-17T06:12:00.531Z,18.54
2018-07-17T06:13:00.499Z,18.67
2018-07-17T06:14:00.530Z,18.65
2018-07-17T06:15:00.481Z,18.70
2018-07-17T06:16:00.492Z,18.67
2018-07-17T06:17:00.464Z,18.76
2018-07-17T06:18:00.500Z,18.73
2018-07-17T06:19:00.462Z,18.73
2018-07-17T06:20:00.475Z,18.81
2018-07-17T06:21:00.441Z,18.85
2018-07-17T06:22:00.452Z,18.87
2018-07-17T06:23:00.390Z,18.95
2018-07-17T06:24:00.393Z,18.95
2018-07-17T06:25:00.427Z,18.98
2018-07-17T06:26:00.353Z,19.06
2018-07-17T06:27:00.354Z,19.06
2018-07-17T06:28:00.329Z,19.06
2018-07-17T06:29:00.338Z,19.07
2018-07-17T06:30:00.338Z,19.11
2018-07-17T06:31:00.293Z,19.19
2018-07-17T06:32:00.336Z,19.26
2018-07-17T06:33:00.336Z,19.29
2018-07-17T06:34:00.303Z,19.32
2018-07-17T06:35:00.258Z,19.33
2018-07-17T06:36:00.248Z,19.39
2018-07-17T06:37:00.241Z,19.39
2018-07-17T06:38:00.221Z,19.48
2018-07-17T06:39:00.210Z,19.48
2018-07-17T06:40:00.220Z,19.58
2018-07-17T06:41:00.181Z,19.63
2018-07-17T06:42:00.181Z,19.68
2018-07-17T06:43:00.184Z,19.65
2018-07-17T06:44:00.149Z,19.73
2018-07-17T06:45:00.168Z,19.78
2018-07-17T06:46:00.129Z,19.78
2018-07-17T06:47:00.118Z,19.77
2018-07-17T06:48:00.102Z,19.94
2018-07-17T06:49:00.138Z,19.88
2018-07-17T06:50:00.078Z,19.92
2018-07-17T06:51:00.091Z,20.23
2018-07-17T06:52:00.059Z,20.52
2018-07-17T06:53:00.054Z,20.70
2018-07-17T06:54:00.045Z,20.88
2018-07-17T06:55:00.067Z,21.10
2018-07-17T06:56:00.042Z,21.52
2018-07-17T06:57:00.003Z,21.83
2018-07-17T06:58:00.011Z,22.15
2018-07-17T06:58:59.993Z,22.31
2018-07-17T06:59:59.970Z,22.47
2018-07-17T07:00:59.983Z,22.45
2018-07-17T07:01:59.977Z,22.51
2018-07-17T07:02:59.932Z,22.52
2018-07-17T07:03:59.924Z,22.65
2018-07-17T07:04:59.912Z,22.73
2018-07-17T07:05:59.899Z,22.82
2018-07-17T07:06:59.940Z,22.86
2018-07-17T07:07:59.878Z,22.97
2018-07-17T07:08:59.862Z,23.16
2018-07-17T07:09:59.859Z,23.10
2018-07-17T07:10:59.849Z,22.94
2018-07-17T07:11:59.834Z,22.76
2018-07-17T07:12:59.879Z,22.70
2018-07-17T07:13:59.803Z,22.75
2018-07-17T07:14:59.798Z,22.77
2018-07-17T07:15:59.785Z,22.92
2018-07-17T07:16:59.785Z,22.91
2018-07-17T07:17:59.770Z,23.01
2018-07-17T07:18:59.803Z,23.05
2018-07-17T07:19:59.738Z,23.04
2018-07-17T07:20:59.732Z,23.16
2018-07-17T07:21:59.716Z,23.40
2018-07-17T07:22:59.701Z,23.42
2018-07-17T07:23:59.711Z,23.43
2018-07-17T07:24:59.712Z,23.50
2018-07-17T07:25:59.672Z,23.28
2018-07-17T07:26:59.666Z,23.22
2018-07-17T07:27:59.655Z,23.22
2018-07-17T07:28:59.663Z,23.27
2018-07-17T07:29:59.628Z,23.17
2018-07-17T07:30:59.659Z,23.10
2018-07-17T07:31:59.607Z,23.17
2018-07-17T07:32:59.593Z,23.43
2018-07-17T07:33:59.581Z,23.51
2018-07-17T07:34:59.603Z,23.55
2018-07-17T07:35:59.562Z,23.76
2018-07-17T07:36:59.564Z,23.78
2018-07-17T07:37:59.539Z,23.75
2018-07-17T07:38:59.527Z,23.61
2018-07-17T07:39:59.516Z,23.70
2018-07-17T07:40:59.518Z,23.73
2018-07-17T07:41:59.490Z,23.95
2018-07-17T07:42:59.498Z,24.09
2018-07-17T07:43:59.477Z,24.18
2018-07-17T07:44:59.466Z,24.35
2018-07-17T07:45:59.475Z,24.32
2018-07-17T07:46:59.432Z,24.27
2018-07-17T07:47:59.427Z,24.12
2018-07-17T07:48:59.426Z,24.10
2018-07-17T07:49:59.399Z,24.10
2018-07-17T07:50:59.401Z,24.05
2018-07-17T07:51:59.376Z,23.69
2018-07-17T07:52:59.371Z,23.60
2018-07-17T07:53:59.355Z,23.57
2018-07-17T07:54:59.372Z,23.57
2018-07-17T07:55:59.375Z,23.58
2018-07-17T07:56:59.319Z,23.68
2018-07-17T07:57:59.321Z,23.80
2018-07-17T07:58:59.307Z,23.79
2018-07-17T07:59:59.295Z,23.94
2018-07-17T08:00:59.299Z,24.00
2018-07-17T08:01:59.296Z,24.03
2018-07-17T08:02:59.260Z,23.93
2018-07-17T08:03:59.276Z,24.00
2018-07-17T08:04:59.245Z,24.02
2018-07-17T08:05:59.228Z,24.06
2018-07-17T08:06:59.243Z,24.10
2018-07-17T08:07:59.222Z,24.10
2018-07-17T08:08:59.189Z,24.08
2018-07-17T08:09:59.188Z,23.97
2018-07-17T08:10:59.173Z,24.03
2018-07-17T08:11:59.179Z,24.02
2018-07-17T08:12:59.190Z,24.12
2018-07-17T08:13:59.138Z,24.09
2018-07-17T08:14:59.128Z,24.08
2018-07-17T08:15:59.128Z,24.15
2018-07-17T08:16:59.107Z,24.08
2018-07-17T08:17:59.124Z,24.06
2018-07-17T08:18:59.099Z,24.16
2018-07-17T08:19:59.074Z,24.27
2018-07-17T08:20:59.069Z,24.31
2018-07-17T08:21:59.057Z,24.40
2018-07-17T08:22:59.040Z,24.47
2018-07-17T08:23:59.055Z,24.30
2018-07-17T08:24:59.016Z,24.12
2018-07-17T08:25:59.015Z,24.06
2018-07-17T08:26:59.006Z,24.06
2018-07-17T08:27:58.994Z,24.08
2018-07-17T08:28:58.991Z,24.09
2018-07-17T08:29:58.987Z,24.18
2018-07-17T08:30:58.953Z,24.20
2018-07-17T08:31:58.951Z,24.08
2018-07-17T08:32:58.935Z,24.34
2018-07-17T08:33:59.810Z,24.49
2018-07-17T08:34:58.930Z,24.73
2018-07-17T08:35:58.906Z,24.81
2018-07-17T08:36:58.896Z,24.83
2018-07-17T08:37:58.887Z,24.91
2018-07-17T08:38:58.875Z,24.83
2018-07-17T08:39:58.877Z,24.84
2018-07-17T08:40:58.873Z,24.91
2018-07-17T08:41:58.846Z,24.91
2018-07-17T08:42:58.841Z,24.96
2018-07-17T08:43:58.840Z,25.06
2018-07-17T08:44:59.755Z,25.05
2018-07-17T08:45:58.809Z,25.05
2018-07-17T08:46:58.787Z,24.90
2018-07-17T08:47:58.815Z,24.84
2018-07-17T08:48:58.772Z,24.61
2018-07-17T08:49:58.787Z,24.67
2018-07-17T08:50:58.764Z,24.49
2018-07-17T08:51:58.725Z,24.43
2018-07-17T08:52:58.743Z,24.55
2018-07-17T08:53:58.710Z,24.50
2018-07-17T08:54:58.740Z,24.55
2018-07-17T08:55:58.700Z,24.62
2018-07-17T08:56:58.679Z,24.80
2018-07-17T08:57:58.681Z,24.81
2018-07-17T08:58:58.658Z,24.95
2018-07-17T08:59:58.645Z,25.13
2018-07-17T09:00:58.644Z,25.30
2018-07-17T09:01:58.628Z,25.40
2018-07-17T09:02:58.607Z,25.46
2018-07-17T09:03:58.612Z,25.46
2018-07-17T09:04:58.581Z,25.42
2018-07-17T09:05:58.603Z,25.30
2018-07-17T09:06:58.563Z,25.20
2018-07-17T09:07:58.555Z,24.93
2018-07-17T09:08:58.543Z,24.77
2018-07-17T09:09:58.556Z,24.50
2018-07-17T09:10:58.529Z,24.45
2018-07-17T09:11:58.530Z,24.32
2018-07-17T09:12:58.494Z,24.46
2018-07-17T09:13:58.478Z,24.50
2018-07-17T09:14:58.478Z,24.42
2018-07-17T09:15:58.493Z,24.25
2018-07-17T09:16:58.446Z,24.13
2018-07-17T09:17:58.443Z,24.00
2018-07-17T09:18:58.426Z,23.83
2018-07-17T09:19:58.434Z,23.91
2018-07-17T09:20:58.433Z,23.90
2018-07-17T09:21:58.390Z,24.06
2018-07-17T09:22:58.391Z,24.10
2018-07-17T09:23:58.368Z,24.25
2018-07-17T09:24:58.374Z,24.39
2018-07-17T09:25:58.369Z,24.52
2018-07-17T09:26:58.355Z,24.61
2018-07-17T09:27:58.323Z,24.68
2018-07-17T09:28:58.319Z,24.73
2018-07-17T09:29:58.325Z,24.83
2018-07-17T09:30:58.297Z,24.88
2018-07-17T09:31:58.282Z,25.06
2018-07-17T09:32:58.289Z,25.06
2018-07-17T09:33:58.259Z,25.06
2018-07-17T09:34:58.275Z,25.02
2018-07-17T09:35:58.242Z,24.90
2018-07-17T09:36:58.224Z,24.88
2018-07-17T09:37:58.328Z,24.78
2018-07-17T09:38:58.250Z,24.45
2018-07-17T09:39:58.185Z,24.43
2018-07-17T09:40:58.213Z,24.43
2018-07-17T09:41:58.164Z,24.45
2018-07-17T09:42:58.157Z,24.57
2018-07-17T09:43:58.160Z,24.60
2018-07-17T09:44:58.135Z,24.62
2018-07-17T09:45:58.145Z,24.61
2018-07-17T09:46:58.136Z,24.53
2018-07-17T09:47:58.102Z,24.40
2018-07-17T09:48:58.085Z,24.28
2018-07-17T09:49:58.087Z,24.35
2018-07-17T09:50:58.052Z,24.46
2018-07-17T09:51:58.098Z,24.60
2018-07-17T09:52:58.054Z,24.76
2018-07-17T09:53:58.023Z,24.78
2018-07-17T09:54:58.026Z,24.68
2018-07-17T09:55:58.007Z,24.68
2018-07-17T09:56:57.993Z,24.85
2018-07-17T09:57:58.011Z,24.87
2018-07-17T09:58:57.986Z,24.93
2018-07-17T09:59:57.966Z,25.02
2018-07-17T10:00:57.953Z,25.20
2018-07-17T10:01:57.940Z,25.18
2018-07-17T10:02:57.931Z,25.21
2018-07-17T10:03:57.936Z,25.25
2018-07-17T10:04:57.898Z,25.27
2018-07-17T10:05:57.888Z,25.43
2018-07-17T10:06:57.897Z,25.36
2018-07-17T10:07:57.912Z,25.24
2018-07-17T10:08:57.862Z,24.91
2018-07-17T10:09:57.865Z,24.69
2018-07-17T10:10:57.839Z,24.47
2018-07-17T10:11:57.827Z,24.32
2018-07-17T10:12:57.810Z,24.45
2018-07-17T10:13:57.824Z,24.49
2018-07-17T10:14:57.792Z,24.69
2018-07-17T10:15:57.772Z,24.85
2018-07-17T10:16:57.761Z,24.91
2018-07-17T10:17:57.771Z,25.08
2018-07-17T10:18:57.770Z,25.10
2018-07-17T10:19:57.789Z,25.27
2018-07-17T10:20:57.717Z,25.64
2018-07-17T10:21:57.701Z,25.85
2018-07-17T10:22:57.702Z,26.05
2018-07-17T10:23:57.704Z,26.09
2018-07-17T10:24:57.714Z,26.13
2018-07-17T10:25:57.661Z,26.13
2018-07-17T10:26:57.913Z,25.97
2018-07-17T10:27:57.647Z,25.82
2018-07-17T10:28:57.628Z,25.82
2018-07-17T10:29:57.650Z,25.82
2018-07-17T10:30:57.603Z,25.83
2018-07-17T10:31:57.653Z,25.77
2018-07-17T10:32:57.617Z,25.73
2018-07-17T10:33:57.573Z,25.43
2018-07-17T10:34:57.571Z,25.21
2018-07-17T10:35:57.578Z,25.27
2018-07-17T10:36:57.550Z,25.35
2018-07-17T10:37:57.541Z,25.54
2018-07-17T10:38:57.533Z,25.51
2018-07-17T10:39:57.506Z,25.60
2018-07-17T10:40:57.496Z,25.46
2018-07-17T10:41:57.511Z,25.55
2018-07-17T10:42:57.476Z,25.61
2018-07-17T10:43:57.463Z,25.67
2018-07-17T10:44:57.462Z,25.79
2018-07-17T10:45:57.471Z,25.97
2018-07-17T10:46:57.450Z,26.10
2018-07-17T10:47:57.424Z,26.28
2018-07-17T10:48:57.410Z,26.57
2018-07-17T10:49:57.403Z,26.58
2018-07-17T10:50:57.386Z,26.57
2018-07-17T10:51:57.408Z,26.54
2018-07-17T10:52:57.384Z,26.36
2018-07-17T10:53:57.346Z,26.12
2018-07-17T10:54:57.376Z,26.07
2018-07-17T10:55:57.339Z,25.98
2018-07-17T10:56:57.329Z,25.98
2018-07-17T10:57:57.351Z,26.09
2018-07-17T10:58:57.303Z,26.17
2018-07-17T10:59:57.324Z,26.28
2018-07-17T11:00:57.345Z,26.33
2018-07-17T11:01:57.268Z,26.39
2018-07-17T11:02:57.250Z,26.44
2018-07-17T11:03:57.258Z,26.45
2018-07-17T11:04:57.230Z,26.47
2018-07-17T11:05:57.247Z,26.40
2018-07-17T11:06:57.941Z,26.36
2018-07-17T11:07:57.198Z,26.33
2018-07-17T11:08:57.229Z,26.20
2018-07-17T11:09:57.176Z,26.07
2018-07-17T11:10:57.165Z,26.05
2018-07-17T11:11:57.179Z,26.05
2018-07-17T11:12:57.144Z,26.23
2018-07-17T11:13:57.173Z,26.43
2018-07-17T11:14:57.129Z,26.48
2018-07-17T11:15:57.110Z,26.60
2018-07-17T11:16:57.120Z,26.63
2018-07-17T11:17:57.104Z,26.60
2018-07-17T11:18:57.080Z,26.69
2018-07-17T11:19:57.404Z,26.95
2018-07-17T11:20:57.052Z,26.88
2018-07-17T11:21:57.041Z,26.80
2018-07-17T11:22:57.048Z,26.63
2018-07-17T11:23:57.022Z,26.66
2018-07-17T11:24:57.010Z,26.52
2018-07-17T11:25:57.016Z,26.39
2018-07-17T11:26:56.990Z,26.18
2018-07-17T11:27:56.981Z,26.29
2018-07-17T11:28:57.001Z,26.37
2018-07-17T11:29:56.959Z,26.52
2018-07-17T11:30:56.955Z,26.51
2018-07-17T11:31:56.979Z,26.55
2018-07-17T11:32:56.927Z,26.39
2018-07-17T11:33:56.917Z,26.35
2018-07-17T11:34:56.922Z,26.21
2018-07-17T11:35:56.931Z,26.12
2018-07-17T11:36:56.889Z,26.18
2018-07-17T11:37:56.867Z,26.25
2018-07-17T11:38:56.854Z,26.26
2018-07-17T11:39:56.846Z,26.26
2018-07-17T11:40:56.841Z,26.39
2018-07-17T11:41:56.850Z,26.37
2018-07-17T11:42:56.814Z,26.23
2018-07-17T11:43:56.802Z,26.36
2018-07-17T11:44:56.788Z,26.39
2018-07-17T11:45:56.776Z,26.52
2018-07-17T11:46:56.778Z,26.75
2018-07-17T11:47:56.863Z,27.17
2018-07-17T11:48:56.742Z,26.95
2018-07-17T11:49:56.730Z,27.04
2018-07-17T11:50:56.722Z,27.13
2018-07-17T11:51:56.712Z,27.24
2018-07-17T11:52:56.732Z,27.39
2018-07-17T11:53:56.685Z,27.31
2018-07-17T11:54:56.676Z,26.95
2018-07-17T11:55:56.663Z,26.72
2018-07-17T11:56:56.656Z,26.54
2018-07-17T11:57:56.639Z,26.40
2018-07-17T11:58:56.690Z,26.54
2018-07-17T11:59:56.622Z,26.69
2018-07-17T12:00:56.616Z,26.94
2018-07-17T12:01:56.604Z,27.09
2018-07-17T12:02:56.619Z,27.36
2018-07-17T12:03:56.576Z,27.41
2018-07-17T12:04:56.591Z,27.50
2018-07-17T12:05:56.620Z,27.81
2018-07-17T12:06:56.546Z,27.90
2018-07-17T12:07:56.535Z,28.12
2018-07-17T12:08:56.548Z,27.63
2018-07-17T12:09:56.512Z,27.27
2018-07-17T12:10:56.517Z,27.17
2018-07-17T12:11:56.489Z,27.14
2018-07-17T12:12:56.490Z,26.81
2018-07-17T12:13:56.466Z,26.75
2018-07-17T12:14:56.481Z,26.77
2018-07-17T12:15:56.447Z,26.88
2018-07-17T12:16:57.395Z,27.10
2018-07-17T12:17:56.432Z,27.06
2018-07-17T12:18:56.411Z,27.00
2018-07-17T12:19:56.505Z,26.87
2018-07-17T12:20:56.401Z,26.87
2018-07-17T12:21:56.378Z,26.91
2018-07-17T12:22:56.382Z,27.10
2018-07-17T12:23:56.349Z,27.17
2018-07-17T12:24:56.347Z,27.09
2018-07-17T12:25:56.353Z,27.22
2018-07-17T12:26:56.332Z,27.25
2018-07-17T12:27:56.327Z,27.39
2018-07-17T12:28:56.315Z,27.55
2018-07-17T12:29:56.293Z,27.74
2018-07-17T12:30:56.282Z,27.63
2018-07-17T12:31:56.282Z,27.55
2018-07-17T12:32:56.259Z,27.49
2018-07-17T12:33:56.249Z,27.46
2018-07-17T12:34:56.327Z,27.34
2018-07-17T12:35:56.230Z,27.17
2018-07-17T12:36:56.228Z,26.88
2018-07-17T12:37:56.204Z,26.82
2018-07-17T12:38:56.194Z,26.36
2018-07-17T12:39:56.182Z,26.18
2018-07-17T12:40:56.197Z,26.33
2018-07-17T12:41:56.274Z,26.25
2018-07-17T12:42:56.148Z,26.35
2018-07-17T12:43:56.138Z,26.36
2018-07-17T12:44:56.131Z,26.54
2018-07-17T12:45:56.124Z,26.65
2018-07-17T12:46:56.263Z,26.63
2018-07-17T12:47:56.094Z,26.58
2018-07-17T12:48:56.081Z,26.57
2018-07-17T12:49:56.128Z,26.65
2018-07-17T12:50:56.063Z,26.72
2018-07-17T12:51:56.081Z,26.60